Benalmadena, Spain
Current Conditions -  °F | °C
As of 1:00 AM on Thursday 27 Nov 2014 (Local Time) from LEMG Reporting Station
Broken Clouds Broken Clouds  
Wind Chill: 59°   Ceiling: 7000
Heat Index: 59°   Visibility: 6mi
Dew Point: 57°   Wind: 10mph
Humidity: 94%   Direction: 90°E
Pressure: 29.77"   Gusts: NA
Location:  36.6°N, 4.57°W
Report Text: LEMG 270000Z 09009KT 9999 FEW030TCU SCT040 BKN070 15/14 Q1008 NOSIG
Loading
Personal Weather Stations






























Interactive Weather Map New forecast layout! Learn more

10-Day Weather Forecast

Advertisements
Track Severe Weather on mobile